createdAt,value
2022-11-28T00:02:07.749Z,7.30
2022-11-28T00:04:35.474Z,7.57
2022-11-28T00:07:03.390Z,10.05
2022-11-28T00:09:32.439Z,7.22
2022-11-28T00:11:59.901Z,7.13
2022-11-28T00:14:27.423Z,7.88
2022-11-28T00:16:54.966Z,7.85
2022-11-28T00:19:22.497Z,12.00
2022-11-28T00:21:50.061Z,9.52
2022-11-28T00:24:17.642Z,11.82
2022-11-28T00:26:46.519Z,11.20
2022-11-28T00:29:14.066Z,7.25
2022-11-28T00:31:43.947Z,9.52
2022-11-28T00:34:13.037Z,6.63
2022-11-28T00:36:40.859Z,10.02
2022-11-28T00:39:08.988Z,10.18
2022-11-28T00:41:36.515Z,8.60
2022-11-28T00:44:05.373Z,9.25
2022-11-28T00:46:32.854Z,10.68
2022-11-28T00:49:06.403Z,7.70
2022-11-28T00:51:34.611Z,7.78
2022-11-28T00:54:02.761Z,6.57
2022-11-28T00:56:31.694Z,7.05
2022-11-28T00:58:59.503Z,7.03
2022-11-28T01:01:29.409Z,6.82
2022-11-28T01:03:58.415Z,7.97
2022-11-28T01:06:27.182Z,6.40
2022-11-28T01:08:55.315Z,8.50
2022-11-28T01:11:23.162Z,7.50
2022-11-28T01:13:51.069Z,9.20
2022-11-28T01:16:18.697Z,6.80
2022-11-28T01:18:47.677Z,6.20
2022-11-28T01:21:15.174Z,6.57
2022-11-28T01:23:42.724Z,5.05
2022-11-28T01:26:10.767Z,5.25
2022-11-28T01:28:38.278Z,7.32
2022-11-28T01:31:06.676Z,4.18
2022-11-28T01:33:34.395Z,5.15
2022-11-28T01:36:03.262Z,4.28
2022-11-28T01:38:30.927Z,5.05
2022-11-28T01:40:58.661Z,4.78
2022-11-28T01:43:26.513Z,3.38
2022-11-28T01:45:54.224Z,4.30
2022-11-28T01:48:23.209Z,3.75
2022-11-28T01:50:51.996Z,6.38
2022-11-28T01:53:21.998Z,4.43
2022-11-28T01:55:53.173Z,5.00
2022-11-28T01:58:20.730Z,5.93
2022-11-28T02:00:48.611Z,4.60
2022-11-28T02:03:18.784Z,3.83
2022-11-28T02:05:46.478Z,7.90
2022-11-28T02:08:13.967Z,4.60
2022-11-28T02:10:50.603Z,4.40
2022-11-28T02:13:27.801Z,5.43
2022-11-28T02:16:01.564Z,6.15
2022-11-28T02:18:36.775Z,4.30
2022-11-28T02:21:24.908Z,5.50
2022-11-28T02:24:03.837Z,3.47
2022-11-28T02:26:46.224Z,3.80
2022-11-28T02:29:28.885Z,2.55
2022-11-28T02:32:11.454Z,3.63
2022-11-28T02:34:45.655Z,3.75
2022-11-28T02:37:16.950Z,2.97
2022-11-28T02:39:46.805Z,3.25
2022-11-28T02:42:18.752Z,9.35
2022-11-28T02:44:48.662Z,4.30
2022-11-28T02:47:20.943Z,4.22
2022-11-28T02:49:50.616Z,2.83
2022-11-28T02:52:19.897Z,4.25
2022-11-28T02:54:48.395Z,2.97
2022-11-28T02:57:15.963Z,4.00
2022-11-28T02:59:47.692Z,4.40
2022-11-28T03:02:17.047Z,4.55
2022-11-28T03:04:51.603Z,3.08
2022-11-28T03:07:25.504Z,5.88
2022-11-28T03:10:01.175Z,5.03
2022-11-28T03:12:33.369Z,2.22
2022-11-28T03:15:02.556Z,4.03
2022-11-28T03:17:33.772Z,3.83
2022-11-28T03:20:11.962Z,4.47
2022-11-28T03:22:41.115Z,3.60
2022-11-28T03:25:11.430Z,3.88
2022-11-28T03:27:41.462Z,5.05
2022-11-28T03:30:12.144Z,3.38
2022-11-28T03:32:40.443Z,5.35
2022-11-28T03:35:11.698Z,6.20
2022-11-28T03:37:40.984Z,4.78
2022-11-28T03:40:10.061Z,4.70
2022-11-28T03:42:39.568Z,5.45
2022-11-28T03:45:09.376Z,5.47
2022-11-28T03:47:40.373Z,3.35
2022-11-28T03:50:12.527Z,4.72
2022-11-28T03:52:42.641Z,4.53
2022-11-28T03:55:11.628Z,3.28
2022-11-28T03:57:42.993Z,4.63
2022-11-28T04:00:12.969Z,4.72
2022-11-28T04:02:43.555Z,5.00
2022-11-28T04:05:18.304Z,8.98
2022-11-28T04:07:47.241Z,6.93
2022-11-28T04:10:18.607Z,5.95
2022-11-28T04:12:49.232Z,6.22
2022-11-28T04:15:19.140Z,12.63
2022-11-28T04:17:51.677Z,5.45
2022-11-28T04:20:26.421Z,6.43
2022-11-28T04:22:56.686Z,5.82
2022-11-28T04:25:24.702Z,3.80
2022-11-28T04:27:55.188Z,7.78
2022-11-28T04:30:22.837Z,8.75
2022-11-28T04:32:52.134Z,4.93
2022-11-28T04:35:24.712Z,5.72
2022-11-28T04:37:53.317Z,5.28
2022-11-28T04:40:21.683Z,6.40
2022-11-28T04:42:52.973Z,5.22
2022-11-28T04:45:24.108Z,4.53
2022-11-28T04:47:51.702Z,9.50
2022-11-28T04:50:19.353Z,4.35
2022-11-28T04:52:53.119Z,6.97
2022-11-28T04:55:25.420Z,5.82
2022-11-28T04:57:57.239Z,6.57
2022-11-28T05:00:25.330Z,4.75
2022-11-28T05:02:54.370Z,5.95
2022-11-28T05:05:23.652Z,6.07
2022-11-28T05:07:52.739Z,5.28
2022-11-28T05:10:20.568Z,4.88
2022-11-28T05:12:48.135Z,5.50
2022-11-28T05:15:19.073Z,9.55
2022-11-28T05:17:47.589Z,7.78
2022-11-28T05:20:15.539Z,6.78
2022-11-28T05:22:43.063Z,7.15
2022-11-28T05:25:12.019Z,8.13
2022-11-28T05:27:39.664Z,6.65
2022-11-28T05:30:08.046Z,5.55
2022-11-28T05:32:36.561Z,7.57
2022-11-28T05:35:04.914Z,7.05
2022-11-28T05:37:32.572Z,7.00
2022-11-28T05:40:00.261Z,7.65
2022-11-28T05:42:30.376Z,6.15
2022-11-28T05:44:58.011Z,8.25
2022-11-28T05:47:25.615Z,9.75
2022-11-28T05:49:55.616Z,7.43
2022-11-28T05:52:25.603Z,6.65
2022-11-28T05:54:53.280Z,7.90
2022-11-28T05:57:20.885Z,7.75
2022-11-28T05:59:49.808Z,18.92
2022-11-28T06:02:27.296Z,6.05
2022-11-28T06:04:57.383Z,7.70
2022-11-28T06:07:27.743Z,5.38
2022-11-28T06:09:58.481Z,4.60
2022-11-28T06:12:26.663Z,6.93
2022-11-28T06:14:56.322Z,7.28
2022-11-28T06:17:44.604Z,5.60
2022-11-28T06:23:37.296Z,7.28
2022-11-28T06:26:17.671Z,9.68
2022-11-28T06:46:37.494Z,8.25
2022-11-28T06:49:40.732Z,6.07
2022-11-28T07:02:53.459Z,6.15
2022-11-28T07:18:31.749Z,11.15
2022-11-28T07:21:26.947Z,10.65
2022-11-28T07:24:15.563Z,9.95
2022-11-28T07:26:44.253Z,12.45
2022-11-28T07:50:19.655Z,11.80
2022-11-28T07:56:04.937Z,9.00
2022-11-28T08:40:48.295Z,8.82
2022-11-28T08:43:41.184Z,13.82
2022-11-28T08:49:06.468Z,15.88
2022-11-28T08:51:38.750Z,24.38
2022-11-28T08:54:10.731Z,18.77
2022-11-28T08:57:11.402Z,18.10
2022-11-28T08:59:43.713Z,18.20
2022-11-28T09:02:15.500Z,17.75
2022-11-28T09:04:43.870Z,18.88
2022-11-28T09:07:18.435Z,18.50
2022-11-28T09:10:18.358Z,18.63
2022-11-28T09:16:00.027Z,20.10
2022-11-28T09:18:30.006Z,19.65
2022-11-28T09:21:03.210Z,20.95
2022-11-28T09:23:39.493Z,15.20
2022-11-28T09:26:13.203Z,15.35
2022-11-28T09:34:44.035Z,19.88
2022-11-28T09:37:12.566Z,15.45
2022-11-28T09:39:57.327Z,21.20
2022-11-28T09:42:30.165Z,17.30
2022-11-28T09:44:59.408Z,15.35
2022-11-28T09:47:31.117Z,17.40
2022-11-28T09:50:01.404Z,16.15
2022-11-28T09:52:34.000Z,24.70
2022-11-28T09:55:07.653Z,17.70
2022-11-28T09:57:37.088Z,16.38
2022-11-28T10:00:05.610Z,17.60
2022-11-28T10:02:36.304Z,20.50
2022-11-28T10:05:08.150Z,17.80
2022-11-28T10:07:43.829Z,17.58
2022-11-28T10:10:18.513Z,19.67
2022-11-28T10:12:49.971Z,20.90
2022-11-28T10:15:44.151Z,21.58
2022-11-28T10:18:19.047Z,19.02
2022-11-28T10:20:47.929Z,18.80
2022-11-28T10:23:17.563Z,22.02
2022-11-28T10:25:48.496Z,16.58
2022-11-28T10:28:17.748Z,17.00
2022-11-28T10:30:47.646Z,16.65
2022-11-28T10:33:20.569Z,18.45
2022-11-28T10:35:51.926Z,17.67
2022-11-28T10:38:25.537Z,17.10
2022-11-28T10:40:57.279Z,16.33
2022-11-28T10:43:30.132Z,15.52
2022-11-28T10:46:03.280Z,16.30
2022-11-28T10:48:39.987Z,21.75
2022-11-28T10:51:12.503Z,16.30
2022-11-28T10:53:45.173Z,17.52
2022-11-28T10:56:19.148Z,21.30
2022-11-28T10:58:50.905Z,20.02
2022-11-28T11:01:18.713Z,18.10
2022-11-28T11:03:48.871Z,17.27
2022-11-28T11:08:58.175Z,19.60
2022-11-28T11:11:28.402Z,18.75
2022-11-28T11:14:01.788Z,20.65
2022-11-28T11:16:44.293Z,20.85
2022-11-28T11:19:23.909Z,21.95
2022-11-28T11:21:59.391Z,19.33
2022-11-28T11:24:27.075Z,22.45
2022-11-28T11:26:55.418Z,21.77
2022-11-28T11:29:23.959Z,22.25
2022-11-28T11:31:52.559Z,18.92
2022-11-28T11:34:22.720Z,23.65
2022-11-28T11:36:56.091Z,22.27
2022-11-28T11:39:25.429Z,24.48
2022-11-28T11:42:10.411Z,27.52
2022-11-28T11:44:38.376Z,24.20
2022-11-28T11:47:06.838Z,24.15
2022-11-28T11:49:37.448Z,23.25
2022-11-28T11:52:06.164Z,22.27
2022-11-28T11:54:33.704Z,31.73
2022-11-28T11:57:30.848Z,26.27
2022-11-28T11:59:51.596Z,19.55
2022-11-28T12:02:22.818Z,26.38
2022-11-28T12:04:57.433Z,21.80
2022-11-28T12:07:27.464Z,26.67
2022-11-28T12:10:01.836Z,18.90
2022-11-28T12:12:34.737Z,24.30
2022-11-28T12:15:13.084Z,21.15
2022-11-28T12:17:49.502Z,20.98
2022-11-28T12:20:28.854Z,24.90
2022-11-28T12:22:58.904Z,25.58
2022-11-28T12:25:27.772Z,21.63
2022-11-28T12:28:03.182Z,26.08
2022-11-28T12:30:39.101Z,26.42
2022-11-28T12:33:16.724Z,20.67
2022-11-28T12:35:48.055Z,25.55
2022-11-28T12:38:25.325Z,25.05
2022-11-28T12:40:59.311Z,21.70
2022-11-28T12:43:31.751Z,25.58
2022-11-28T12:46:11.295Z,22.90
2022-11-28T12:48:47.442Z,27.77
2022-11-28T12:51:25.890Z,29.55
2022-11-28T12:54:00.808Z,30.40
2022-11-28T12:56:39.105Z,26.67
2022-11-28T12:59:19.799Z,28.23
2022-11-28T13:01:54.878Z,29.75
2022-11-28T13:04:29.983Z,27.65
2022-11-28T13:07:02.502Z,27.45
2022-11-28T13:12:23.545Z,24.50
2022-11-28T13:14:54.049Z,23.80
2022-11-28T13:17:37.080Z,23.98
2022-11-28T13:20:08.875Z,25.88
2022-11-28T13:22:40.994Z,20.20
2022-11-28T13:25:14.655Z,16.88
2022-11-28T13:27:45.864Z,18.38
2022-11-28T13:30:15.452Z,20.38
2022-11-28T13:32:46.826Z,25.83
2022-11-28T13:35:15.240Z,20.27
2022-11-28T13:40:37.987Z,21.27
2022-11-28T13:43:10.325Z,22.35
2022-11-28T13:45:39.688Z,30.20
2022-11-28T13:48:42.903Z,16.25
2022-11-28T13:51:19.965Z,21.25
2022-11-28T13:54:15.354Z,21.42
2022-11-28T13:56:43.157Z,20.23
2022-11-28T13:59:16.874Z,18.13
2022-11-28T14:01:45.795Z,17.13
2022-11-28T14:04:14.713Z,15.10
2022-11-28T14:06:44.703Z,13.75
2022-11-28T14:09:24.986Z,18.15
2022-11-28T14:12:07.876Z,16.85
2022-11-28T14:14:54.399Z,18.55
2022-11-28T14:17:27.919Z,16.27
2022-11-28T14:20:03.013Z,24.88
2022-11-28T14:22:35.917Z,15.50
2022-11-28T14:25:11.983Z,13.27
2022-11-28T14:27:41.051Z,18.08
2022-11-28T14:30:31.305Z,15.70
2022-11-28T14:33:01.773Z,16.30
2022-11-28T14:35:49.316Z,19.50
2022-11-28T14:38:34.190Z,16.17
2022-11-28T14:41:04.882Z,18.88
2022-11-28T14:43:33.376Z,19.98
2022-11-28T14:46:15.911Z,22.35
2022-11-28T14:49:04.626Z,19.65
2022-11-28T14:51:47.572Z,19.10
2022-11-28T14:54:21.169Z,22.67
2022-11-28T14:56:56.630Z,24.55
2022-11-28T14:59:29.137Z,20.55
2022-11-28T15:02:03.413Z,21.42
2022-11-28T15:04:39.823Z,17.98
2022-11-28T15:07:09.119Z,22.77
2022-11-28T15:09:44.915Z,23.15
2022-11-28T15:12:33.205Z,24.17
2022-11-28T15:18:10.346Z,15.65
2022-11-28T15:20:45.316Z,15.80
2022-11-28T15:23:27.245Z,15.57
2022-11-28T15:26:05.973Z,16.45
2022-11-28T15:28:44.021Z,15.98
2022-11-28T15:31:21.909Z,16.65
2022-11-28T15:33:50.107Z,20.80
2022-11-28T15:36:27.060Z,18.30
2022-11-28T15:38:55.786Z,16.63
2022-11-28T15:41:26.192Z,17.50
2022-11-28T15:43:56.686Z,20.88
2022-11-28T15:46:28.033Z,20.98
2022-11-28T15:48:56.044Z,19.90
2022-11-28T15:51:26.927Z,19.85
2022-11-28T15:53:55.172Z,20.77
2022-11-28T15:56:23.388Z,41.05
2022-11-28T15:58:51.937Z,43.35
2022-11-28T16:01:31.879Z,39.55
2022-11-28T16:04:01.084Z,33.75
2022-11-28T16:06:39.536Z,24.83
2022-11-28T16:09:10.525Z,25.08
2022-11-28T16:11:46.436Z,22.95
2022-11-28T16:14:17.804Z,21.23
2022-11-28T16:16:52.384Z,20.17
2022-11-28T16:19:24.172Z,24.90
2022-11-28T16:21:56.558Z,25.02
2022-11-28T16:24:54.904Z,22.45
2022-11-28T16:27:30.450Z,23.83
2022-11-28T16:29:59.019Z,22.95
2022-11-28T16:32:40.395Z,22.35
2022-11-28T16:35:12.898Z,17.55
2022-11-28T16:37:42.663Z,19.80
2022-11-28T16:40:15.180Z,17.65
2022-11-28T16:42:45.691Z,19.02
2022-11-28T16:45:17.568Z,19.77
2022-11-28T16:47:53.611Z,24.85
2022-11-28T16:50:22.293Z,29.67
2022-11-28T16:52:51.599Z,33.78
2022-11-28T16:55:42.414Z,26.63
2022-11-28T16:58:11.719Z,27.23
2022-11-28T17:00:53.797Z,29.05
2022-11-28T17:03:42.765Z,26.80
2022-11-28T17:06:20.218Z,25.67
2022-11-28T17:08:48.409Z,23.67
2022-11-28T17:11:21.246Z,29.38
2022-11-28T17:13:49.174Z,23.77
2022-11-28T17:16:23.085Z,23.25
2022-11-28T17:18:55.202Z,25.20
2022-11-28T17:21:28.433Z,24.80
2022-11-28T17:23:56.916Z,21.97
2022-11-28T17:26:25.101Z,28.33
2022-11-28T17:28:54.551Z,33.03
2022-11-28T17:31:24.850Z,31.80
2022-11-28T17:33:54.488Z,30.58
2022-11-28T17:36:22.562Z,27.67
2022-11-28T17:38:52.275Z,30.00
2022-11-28T17:41:20.264Z,30.88
2022-11-28T17:43:48.123Z,27.90
2022-11-28T17:46:16.271Z,32.55
2022-11-28T17:48:44.328Z,38.25
2022-11-28T17:51:13.950Z,37.63
2022-11-28T17:53:41.983Z,41.42
2022-11-28T17:56:10.928Z,44.05
2022-11-28T17:58:38.991Z,39.08
2022-11-28T18:01:10.614Z,36.92
2022-11-28T18:03:38.560Z,38.33
2022-11-28T18:06:06.442Z,50.55
2022-11-28T18:08:35.855Z,39.17
2022-11-28T18:11:05.070Z,35.28
2022-11-28T18:16:30.577Z,35.45
2022-11-28T18:18:58.487Z,39.10
2022-11-28T18:21:26.869Z,38.30
2022-11-28T18:23:59.604Z,41.22
2022-11-28T18:26:28.965Z,38.58
2022-11-28T18:28:57.428Z,29.88
2022-11-28T18:31:26.104Z,33.33
2022-11-28T18:34:02.262Z,37.95
2022-11-28T18:36:34.044Z,49.72
2022-11-28T18:39:23.261Z,31.52
2022-11-28T18:42:10.660Z,32.35
2022-11-28T18:44:46.537Z,30.38
2022-11-28T18:47:17.456Z,40.40
2022-11-28T18:49:53.272Z,36.75
2022-11-28T18:52:23.400Z,37.35
2022-11-28T18:55:05.770Z,35.75
2022-11-28T18:57:58.994Z,33.22
2022-11-28T19:00:29.923Z,44.15
2022-11-28T19:02:58.549Z,36.00
2022-11-28T19:05:38.977Z,35.92
2022-11-28T19:08:08.962Z,32.72
2022-11-28T19:10:41.882Z,36.20
2022-11-28T19:13:17.714Z,35.45
2022-11-28T19:15:47.518Z,37.35
2022-11-28T19:18:15.702Z,38.97
2022-11-28T19:20:54.640Z,34.60
2022-11-28T19:23:22.441Z,33.15
2022-11-28T19:25:50.204Z,35.88
2022-11-28T19:28:18.258Z,33.00
2022-11-28T19:31:10.172Z,35.30
2022-11-28T19:34:01.920Z,37.70
2022-11-28T19:39:59.801Z,25.23
2022-11-28T19:42:30.027Z,35.70
2022-11-28T19:45:00.139Z,38.50
2022-11-28T19:47:29.078Z,36.97
2022-11-28T19:49:57.385Z,30.98
2022-11-28T19:52:27.578Z,29.73
2022-11-28T19:54:55.656Z,33.15
2022-11-28T19:57:26.372Z,32.10
2022-11-28T19:59:53.985Z,26.42
2022-11-28T20:02:24.480Z,33.10
2022-11-28T20:04:54.660Z,29.13
2022-11-28T20:07:22.453Z,43.78
2022-11-28T20:09:50.270Z,34.30
2022-11-28T20:12:32.743Z,38.30
2022-11-28T20:15:18.221Z,43.85
2022-11-28T20:17:46.279Z,33.85
2022-11-28T20:20:38.736Z,33.20
2022-11-28T20:23:21.646Z,36.45
2022-11-28T20:29:46.367Z,46.30
2022-11-28T20:32:28.211Z,24.65
2022-11-28T20:35:38.543Z,39.78
2022-11-28T21:11:56.256Z,30.92
2022-11-28T21:14:25.297Z,34.47
2022-11-28T21:16:55.242Z,28.75
2022-11-28T21:19:23.039Z,33.60
2022-11-28T21:21:52.934Z,39.83
2022-11-28T21:24:32.867Z,30.10
2022-11-28T21:27:09.359Z,38.55
2022-11-28T21:29:37.313Z,32.75
2022-11-28T21:32:05.691Z,34.72
2022-11-28T21:34:36.629Z,36.22
2022-11-28T21:37:04.806Z,41.03
2022-11-28T21:39:38.466Z,40.40
2022-11-28T21:42:08.260Z,35.75
2022-11-28T21:44:41.768Z,39.35
2022-11-28T21:47:10.327Z,33.08
2022-11-28T21:49:41.494Z,39.88
2022-11-28T21:52:15.483Z,45.25
2022-11-28T21:54:43.548Z,31.58
2022-11-28T21:57:30.606Z,31.88
2022-11-28T21:59:58.852Z,26.45
2022-11-28T22:02:30.796Z,33.08
2022-11-28T22:04:59.602Z,26.73
2022-11-28T22:07:31.057Z,28.75
2022-11-28T22:09:59.127Z,33.75
2022-11-28T22:12:28.689Z,29.17
2022-11-28T22:15:02.144Z,34.33
2022-11-28T22:17:31.917Z,29.00
2022-11-28T22:19:59.678Z,32.78
2022-11-28T22:22:27.994Z,31.67
2022-11-28T22:24:55.769Z,43.33
2022-11-28T22:27:23.670Z,54.53
2022-11-28T22:29:53.367Z,28.52
2022-11-28T22:32:21.006Z,31.20
2022-11-28T22:34:48.687Z,37.30
2022-11-28T22:37:16.956Z,28.65
2022-11-28T22:39:44.575Z,32.05
2022-11-28T22:42:15.008Z,30.52
2022-11-28T22:44:43.072Z,37.05
2022-11-28T22:47:12.379Z,32.35
2022-11-28T22:49:39.875Z,37.83
2022-11-28T22:52:07.428Z,26.00
2022-11-28T22:54:34.987Z,25.73
2022-11-28T22:57:02.545Z,31.30
2022-11-28T22:59:35.303Z,25.83
2022-11-28T23:02:07.608Z,26.90
2022-11-28T23:04:38.132Z,29.35
2022-11-28T23:07:05.688Z,26.27
2022-11-28T23:09:33.360Z,28.30
2022-11-28T23:12:01.280Z,26.17
2022-11-28T23:14:31.496Z,23.35
2022-11-28T23:16:59.540Z,20.08
2022-11-28T23:19:27.403Z,22.40
2022-11-28T23:21:56.258Z,19.30
2022-11-28T23:24:23.829Z,22.40
2022-11-28T23:26:52.657Z,20.65
2022-11-28T23:29:20.702Z,18.30
2022-11-28T23:31:51.762Z,17.55
2022-11-28T23:34:19.481Z,19.48
2022-11-28T23:36:47.596Z,14.65
2022-11-28T23:39:17.158Z,18.50
2022-11-28T23:41:45.249Z,21.13
2022-11-28T23:44:13.643Z,16.50
2022-11-28T23:46:41.554Z,21.63
2022-11-28T23:49:09.580Z,21.05
2022-11-28T23:51:37.388Z,19.10
2022-11-28T23:54:04.981Z,17.73
2022-11-28T23:56:35.199Z,19.27
2022-11-28T23:59:04.316Z,18.67
